Polson, MT

7:25 AM MDT on September 04, 2015 (GMT -0600)
CCS20 | | Change Station
CLOSE
Current Station
Personal Weather Station
Location: Polson, MT
Elevation: 2960 ft
Nearby Weather Stations

Elev 2960 ft 47.69 °N, 114.14 °W | Updated 37 seconds ago

Overcast
Overcast
51.6 °F
Feels Like 51.6 °F
N
0.0
Wind Variable Wind from WNW
Gusts 7.0 mph

Today
High -- | Low -- °F
--% Chance of Precip.
Yesterday
High -- | Low -- °F
Precip. -- in
6:58 AM 8:11 PM
Waning Gibbous, 59% visible
Pressure 29.98 in
Visibility 5.0 miles
Clouds Mostly Cloudy 300 ft
Overcast 800 ft
Dew Point 52 °F
Humidity 100%
Rainfall 0.04 in
Snow Depth Not available.
UV 0 out of 12
Pollen 6.50 out of 12
Air Quality Not available.
Flu Activity Not available.
SPECI KMSO 041257Z 29003KT 5SM BR BKN003 OVC008 06/06 A2998 RMK AO2 T00610056
Pressure 29.98 in
Visibility 5.0 miles
Clouds Mostly Cloudy 300 ft
Overcast 800 ft
Dew Point 52 °F
Humidity 100%
Rainfall 0.04 in
Snow Depth Not available.
UV 0 out of 12
Pollen 6.50 out of 12
Air Quality Not available.
Flu Activity Not available.
SPECI KMSO 041257Z 29003KT 5SM BR BKN003 OVC008 06/06 A2998 RMK AO2 T00610056

10-Day Weather Forecast

×

Almanac

Astronomy

Sep. 04, 2015 Rise Set
Actual Time
Civil Twilight
Nautical Twilight
Astronomical Twilight
Moon
Length of Visible Light
Length of Day
Tomorrow will be .
, % of the Moon is Illuminated

Today's Extremes

State Highs State Lows

Community

WunderPhotos

Upload Photos

1,852,179 photos uploaded!

WunderBlogs® & News

Nearby

Air Quality

  Air Quality AQ Index Pollutant
Not available.

Snow Depth

Station Depth Elevation

Earthquake Activity

City Distance Mag. Time & Date
Minimum magnitude displayed is 2.5.

Coastal Water Temperatures

Place Temperature

Stations

Nearby Weather Stations

Station Location Temp. Windchill Dew Point Humidity Wind Precip. Elev Updated Type